createdAt,value
2018-01-04T00:01:07.809Z,97746.63
2018-01-04T00:03:34.071Z,97725.67
2018-01-04T00:06:00.532Z,97758.26
2018-01-04T00:08:26.880Z,97737.50
2018-01-04T00:10:53.161Z,97756.83
2018-01-04T00:13:20.392Z,97735.64
2018-01-04T00:15:46.672Z,97753.66
2018-01-04T00:18:13.189Z,97761.13
2018-01-04T00:20:40.199Z,97770.39
2018-01-04T00:23:06.518Z,97777.19
2018-01-04T00:25:32.859Z,97795.28
2018-01-04T00:27:59.280Z,97784.31
2018-01-04T00:30:25.580Z,97790.55
2018-01-04T00:32:52.266Z,97788.84
2018-01-04T00:35:18.626Z,97790.80
2018-01-04T00:37:45.645Z,97800.63
2018-01-04T00:40:11.944Z,97811.41
2018-01-04T00:42:38.317Z,97812.16
2018-01-04T00:45:04.827Z,97806.56
2018-01-04T00:47:31.137Z,97812.43
2018-01-04T00:49:57.585Z,97804.84
2018-01-04T00:52:24.127Z,97816.09
2018-01-04T00:54:50.459Z,97810.91
2018-01-04T00:57:16.703Z,97807.54
2018-01-04T00:59:43.119Z,97816.83
2018-01-04T01:02:09.970Z,97811.25
2018-01-04T01:04:37.864Z,97819.03
2018-01-04T01:07:05.266Z,97818.66
2018-01-04T01:09:31.514Z,97812.41
2018-01-04T01:11:57.824Z,97827.80
2018-01-04T01:14:24.232Z,97843.55
2018-01-04T01:16:51.224Z,97803.06
2018-01-04T01:19:17.640Z,97786.83
2018-01-04T01:21:43.914Z,97835.31
2018-01-04T01:24:10.205Z,97826.58
2018-01-04T01:26:36.511Z,97833.53
2018-01-04T01:29:02.791Z,97835.02
2018-01-04T01:31:29.099Z,97843.13
2018-01-04T01:33:55.384Z,97843.74
2018-01-04T01:36:21.647Z,97843.72
2018-01-04T01:38:48.307Z,97857.04
2018-01-04T01:41:14.607Z,97847.94
2018-01-04T01:43:40.869Z,97848.70
2018-01-04T01:46:07.195Z,97850.41
2018-01-04T01:48:33.667Z,97849.05
2018-01-04T01:51:00.665Z,97891.45
2018-01-04T01:53:27.174Z,97861.19
2018-01-04T01:55:53.451Z,97857.42
2018-01-04T01:58:19.756Z,97840.06
2018-01-04T02:00:45.992Z,97860.95
2018-01-04T02:03:12.277Z,97855.77
2018-01-04T02:05:39.288Z,97832.66
2018-01-04T02:08:05.686Z,97868.19
2018-01-04T02:10:31.987Z,97867.57
2018-01-04T02:12:59.038Z,97863.92
2018-01-04T02:15:26.038Z,97872.38
2018-01-04T02:18:11.117Z,97863.32
2018-01-04T02:20:56.014Z,97880.05
2018-01-04T02:23:40.847Z,97876.08
2018-01-04T02:26:07.135Z,97873.64
2018-01-04T02:28:52.125Z,97865.65
2018-01-04T02:31:37.313Z,97878.38
2018-01-04T02:34:21.018Z,97878.88
2018-01-04T02:40:12.540Z,97859.44
2018-01-04T02:42:58.097Z,97877.95
2018-01-04T02:45:52.524Z,97880.54
2018-01-04T02:48:19.504Z,97882.32
2018-01-04T02:50:45.824Z,97864.86
2018-01-04T02:53:12.080Z,97867.57
2018-01-04T02:55:38.406Z,97859.64
2018-01-04T02:58:04.836Z,97868.53
2018-01-04T03:00:31.100Z,97871.27
2018-01-04T03:02:57.491Z,97894.83
2018-01-04T03:05:23.736Z,97870.80
2018-01-04T03:07:50.156Z,97891.30
2018-01-04T03:10:16.420Z,97886.12
2018-01-04T03:12:42.910Z,97898.13
2018-01-04T03:15:09.180Z,97906.91
2018-01-04T03:17:35.478Z,97884.19
2018-01-04T03:20:02.026Z,97893.93
2018-01-04T03:22:34.478Z,97895.20
2018-01-04T03:25:07.054Z,97910.94
2018-01-04T03:27:39.437Z,97889.37
2018-01-04T03:30:11.905Z,97892.47
2018-01-04T03:32:44.381Z,97898.81
2018-01-04T03:35:16.831Z,97889.14
2018-01-04T03:37:49.961Z,97913.83
2018-01-04T03:40:22.530Z,97892.28
2018-01-04T03:45:58.209Z,97923.89
2018-01-04T03:48:26.513Z,97882.25
2018-01-04T03:50:58.952Z,97894.77
2018-01-04T03:53:31.319Z,97888.30
2018-01-04T03:56:03.908Z,97898.84
2018-01-04T03:58:36.425Z,97894.41
2018-01-04T04:01:08.950Z,97915.71
2018-01-04T04:03:35.209Z,97903.09
2018-01-04T04:06:07.617Z,97914.68
2018-01-04T04:08:40.872Z,97910.06
2018-01-04T04:11:07.118Z,97918.43
2018-01-04T04:13:33.417Z,97918.97
2018-01-04T04:15:59.719Z,97923.93
2018-01-04T04:18:26.046Z,97922.93
2018-01-04T04:20:53.096Z,97941.22
2018-01-04T04:23:20.095Z,97944.27
2018-01-04T04:25:46.363Z,97937.44
2018-01-04T04:28:13.426Z,97939.95
2018-01-04T04:30:39.691Z,97941.36
2018-01-04T04:33:05.986Z,97916.97
2018-01-04T04:35:32.229Z,97933.53
2018-01-04T04:37:58.541Z,97943.77
2018-01-04T04:40:25.552Z,97938.69
2018-01-04T04:42:51.867Z,97950.15
2018-01-04T04:45:18.173Z,97952.66
2018-01-04T04:47:44.495Z,97953.00
2018-01-04T04:50:10.732Z,97954.98
2018-01-04T04:52:36.977Z,97960.41
2018-01-04T04:55:03.300Z,97965.80
2018-01-04T04:57:29.556Z,97978.73
2018-01-04T04:59:55.876Z,97963.91
2018-01-04T05:02:22.128Z,97970.59
2018-01-04T05:04:48.396Z,97964.91
2018-01-04T05:07:14.636Z,97976.89
2018-01-04T05:09:41.020Z,97966.70
2018-01-04T05:12:07.260Z,97968.75
2018-01-04T05:14:33.594Z,97962.67
2018-01-04T05:17:00.656Z,97977.68
2018-01-04T05:19:27.702Z,97982.83
2018-01-04T05:21:54.746Z,97963.54
2018-01-04T05:24:21.772Z,97970.23
2018-01-04T05:26:48.665Z,97977.03
2018-01-04T05:29:14.933Z,97976.27
2018-01-04T05:31:41.207Z,97972.63
2018-01-04T05:34:08.250Z,97975.23
2018-01-04T05:36:35.330Z,97992.33
2018-01-04T05:39:01.763Z,97979.66
2018-01-04T05:41:28.066Z,97990.92
2018-01-04T05:43:55.101Z,97991.98
2018-01-04T05:46:22.144Z,97995.83
2018-01-04T05:48:49.145Z,98004.27
2018-01-04T05:51:15.436Z,98019.31
2018-01-04T05:53:42.452Z,98018.98
2018-01-04T05:56:08.782Z,98013.17
2018-01-04T05:58:35.080Z,98003.94
2018-01-04T06:01:01.399Z,98012.56
2018-01-04T06:03:27.702Z,98023.94
2018-01-04T06:05:54.741Z,98015.30
2018-01-04T06:08:21.753Z,98019.67
2018-01-04T06:10:48.031Z,98011.48
2018-01-04T06:13:15.056Z,98020.83
2018-01-04T06:15:42.160Z,98028.88
2018-01-04T06:18:08.659Z,98026.00
2018-01-04T06:20:36.000Z,98017.84
2018-01-04T06:23:03.036Z,98025.71
2018-01-04T06:25:29.391Z,98030.86
2018-01-04T06:27:56.390Z,98012.41
2018-01-04T06:30:23.786Z,98013.58
2018-01-04T06:32:50.836Z,98012.17
2018-01-04T06:35:17.919Z,98016.98
2018-01-04T06:37:44.230Z,98013.73
2018-01-04T06:40:11.267Z,98014.34
2018-01-04T06:42:38.339Z,98014.20
2018-01-04T06:45:04.579Z,98020.22
2018-01-04T06:47:37.979Z,98016.30
2018-01-04T06:50:04.276Z,98019.22
2018-01-04T06:52:31.260Z,98030.57
2018-01-04T06:54:57.584Z,98016.36
2018-01-04T06:57:23.860Z,98035.05
2018-01-04T06:59:50.196Z,98026.47
2018-01-04T07:02:17.955Z,98046.27
2018-01-04T07:04:44.214Z,98044.05
2018-01-04T07:07:18.216Z,98055.48
2018-01-04T07:09:44.632Z,98047.73
2018-01-04T07:12:10.928Z,98050.09
2018-01-04T07:14:37.194Z,98043.97
2018-01-04T07:17:03.475Z,98053.53
2018-01-04T07:19:29.796Z,98061.27
2018-01-04T07:21:56.145Z,98055.01
2018-01-04T07:24:22.386Z,98035.63
2018-01-04T07:26:48.697Z,98060.55
2018-01-04T07:29:15.029Z,98063.96
2018-01-04T07:31:41.303Z,98067.17
2018-01-04T07:34:07.567Z,98065.44
2018-01-04T07:36:33.865Z,98070.88
2018-01-04T07:39:07.284Z,98071.00
2018-01-04T07:41:34.296Z,98080.80
2018-01-04T07:44:00.639Z,98085.11
2018-01-04T07:46:26.957Z,98093.41
2018-01-04T07:48:53.208Z,98094.94
2018-01-04T07:51:19.467Z,98094.12
2018-01-04T07:53:45.748Z,98082.80
2018-01-04T07:56:12.016Z,98097.91
2018-01-04T07:58:38.975Z,98104.48
2018-01-04T08:01:05.287Z,98099.81
2018-01-04T08:03:32.270Z,98100.72
2018-01-04T08:05:58.519Z,98106.55
2018-01-04T08:08:24.829Z,98098.32
2018-01-04T08:10:51.083Z,98095.39
2018-01-04T08:13:17.306Z,98109.79
2018-01-04T08:15:43.595Z,98111.11
2018-01-04T08:18:09.850Z,98116.52
2018-01-04T08:20:36.133Z,98122.56
2018-01-04T08:23:03.218Z,98127.68
2018-01-04T08:25:29.494Z,98129.36
2018-01-04T08:27:55.740Z,98126.34
2018-01-04T08:30:22.044Z,98126.02
2018-01-04T08:32:48.345Z,98140.97
2018-01-04T08:35:14.628Z,98144.95
2018-01-04T08:37:40.928Z,98144.53
2018-01-04T08:40:08.221Z,98133.26
2018-01-04T08:42:35.258Z,98147.52
2018-01-04T08:45:04.443Z,98146.69
2018-01-04T08:47:30.702Z,98151.47
2018-01-04T08:49:57.701Z,98141.16
2018-01-04T08:52:24.090Z,98122.70
2018-01-04T08:54:50.389Z,98132.84
2018-01-04T08:57:18.179Z,98126.11
2018-01-04T08:59:45.181Z,98141.25
2018-01-04T09:02:11.455Z,98141.81
2018-01-04T09:04:38.564Z,98127.70
2018-01-04T09:07:04.813Z,98157.03
2018-01-04T09:09:31.818Z,98132.95
2018-01-04T09:11:58.096Z,98141.13
2018-01-04T09:14:24.424Z,98145.66
2018-01-04T09:16:50.746Z,98137.55
2018-01-04T09:19:18.496Z,98148.92
2018-01-04T09:21:44.832Z,98139.35
2018-01-04T09:24:11.212Z,98149.74
2018-01-04T09:26:37.575Z,98145.08
2018-01-04T09:29:03.820Z,98138.92
2018-01-04T09:31:30.133Z,98137.08
2018-01-04T09:33:56.424Z,98154.11
2018-01-04T09:36:23.541Z,98144.38
2018-01-04T09:38:49.839Z,98146.56
2018-01-04T09:41:16.167Z,98148.05
2018-01-04T09:43:42.451Z,98149.87
2018-01-04T09:46:08.767Z,98132.70
2018-01-04T09:48:35.115Z,98140.59
2018-01-04T09:51:02.410Z,98147.16
2018-01-04T09:53:28.850Z,98145.58
2018-01-04T09:55:55.307Z,98120.81
2018-01-04T09:58:21.794Z,98144.70
2018-01-04T10:00:48.408Z,98161.70
2018-01-04T10:03:15.763Z,98133.81
2018-01-04T10:05:43.152Z,98127.50
2018-01-04T10:08:09.640Z,98135.30
2018-01-04T10:10:35.954Z,98123.45
2018-01-04T10:13:03.409Z,98119.06
2018-01-04T10:15:29.794Z,98112.52
2018-01-04T10:17:56.193Z,98119.27
2018-01-04T10:20:22.930Z,98112.75
2018-01-04T10:22:49.503Z,98117.87
2018-01-04T10:25:17.095Z,98112.29
2018-01-04T10:27:48.660Z,98113.11
2018-01-04T10:30:15.038Z,98134.30
2018-01-04T10:32:47.329Z,98121.09
2018-01-04T10:35:14.097Z,98118.89
2018-01-04T10:37:40.656Z,98092.02
2018-01-04T10:40:07.076Z,98123.20
2018-01-04T10:42:33.316Z,98117.95
2018-01-04T10:45:05.230Z,98141.27
2018-01-04T10:47:31.562Z,98124.10
2018-01-04T10:49:57.898Z,98126.28
2018-01-04T10:52:24.153Z,98119.37
2018-01-04T10:54:50.430Z,98107.56
2018-01-04T10:57:16.727Z,98112.67
2018-01-04T10:59:43.012Z,98118.74
2018-01-04T11:02:09.293Z,98113.63
2018-01-04T11:04:35.539Z,98091.25
2018-01-04T11:07:01.817Z,98126.52
2018-01-04T11:09:28.103Z,98123.91
2018-01-04T11:11:54.427Z,98110.04
2018-01-04T11:14:20.719Z,98104.41
2018-01-04T11:16:47.015Z,98102.23
2018-01-04T11:19:14.119Z,98102.27
2018-01-04T11:21:40.461Z,98108.75
2018-01-04T11:24:06.782Z,98108.44
2018-01-04T11:26:33.035Z,98098.84
2018-01-04T11:28:59.457Z,98082.15
2018-01-04T11:31:25.660Z,98104.91
2018-01-04T11:33:51.923Z,98096.94
2018-01-04T11:36:18.212Z,98092.44
2018-01-04T11:38:44.496Z,98088.41
2018-01-04T11:41:11.490Z,98090.93
2018-01-04T11:43:37.798Z,98095.73
2018-01-04T11:46:04.038Z,98092.26
2018-01-04T11:48:30.310Z,98080.40
2018-01-04T11:50:56.616Z,98072.21
2018-01-04T11:53:22.968Z,98076.41
2018-01-04T11:55:49.245Z,98083.95
2018-01-04T11:58:15.524Z,98076.93
2018-01-04T12:00:41.802Z,98081.06
2018-01-04T12:03:08.050Z,98068.36
2018-01-04T12:05:34.326Z,98068.39
2018-01-04T12:08:00.600Z,98057.47
2018-01-04T12:10:27.112Z,98045.31
2018-01-04T12:12:54.120Z,98060.77
2018-01-04T12:15:20.385Z,98060.91
2018-01-04T12:17:47.382Z,98047.06
2018-01-04T12:20:13.675Z,98054.80
2018-01-04T12:22:40.880Z,98051.02
2018-01-04T12:25:07.172Z,98059.81
2018-01-04T12:27:33.423Z,98057.61
2018-01-04T12:30:06.756Z,98049.95
2018-01-04T12:32:33.768Z,98060.56
2018-01-04T12:35:00.081Z,98060.14
2018-01-04T12:37:26.344Z,98053.00
2018-01-04T12:39:52.688Z,98057.98
2018-01-04T12:42:18.964Z,98060.50
2018-01-04T12:44:45.248Z,98065.69
2018-01-04T12:47:11.514Z,98053.27
2018-01-04T12:49:38.552Z,98057.78
2018-01-04T12:52:04.861Z,98039.36
2018-01-04T12:54:31.173Z,98043.48
2018-01-04T12:56:57.482Z,98044.73
2018-01-04T12:59:23.760Z,98046.72
2018-01-04T13:01:50.052Z,98039.78
2018-01-04T13:04:16.347Z,98039.81
2018-01-04T13:06:42.721Z,98032.32
2018-01-04T13:09:08.980Z,98028.53
2018-01-04T13:11:35.268Z,98023.26
2018-01-04T13:14:01.554Z,98029.58
2018-01-04T13:16:28.586Z,98041.61
2018-01-04T13:18:54.908Z,98021.30
2018-01-04T13:21:22.675Z,98023.66
2018-01-04T13:23:48.977Z,98031.49
2018-01-04T13:26:15.241Z,98019.00
2018-01-04T13:28:41.531Z,98021.03
2018-01-04T13:31:07.768Z,98018.80
2018-01-04T13:33:34.083Z,98020.05
2018-01-04T13:36:00.321Z,98025.55
2018-01-04T13:38:26.649Z,98025.07
2018-01-04T13:40:52.909Z,98032.48
2018-01-04T13:43:19.193Z,98023.84
2018-01-04T13:45:45.525Z,98021.02
2018-01-04T13:48:11.807Z,98030.36
2018-01-04T13:50:38.112Z,98034.05
2018-01-04T13:53:04.351Z,98029.98
2018-01-04T13:55:30.637Z,98025.70
2018-01-04T13:57:57.900Z,98051.05
2018-01-04T14:00:24.212Z,98033.12
2018-01-04T14:02:51.194Z,98032.46
2018-01-04T14:05:17.462Z,98029.88
2018-01-04T14:07:43.772Z,98019.72
2018-01-04T14:10:10.041Z,98004.44
2018-01-04T14:12:36.300Z,98004.36
2018-01-04T14:15:02.573Z,98005.25
2018-01-04T14:17:29.159Z,97999.34
2018-01-04T14:19:55.428Z,98004.46
2018-01-04T14:22:21.753Z,98009.28
2018-01-04T14:24:48.006Z,97994.62
2018-01-04T14:27:15.731Z,97989.70
2018-01-04T14:29:42.007Z,97993.80
2018-01-04T14:32:08.300Z,97986.16
2018-01-04T14:34:34.571Z,97980.98
2018-01-04T14:37:00.856Z,97983.55
2018-01-04T14:39:34.125Z,97979.14
2018-01-04T14:42:00.385Z,97977.12
2018-01-04T14:44:26.673Z,97974.02
2018-01-04T14:46:53.700Z,97973.21
2018-01-04T14:49:19.987Z,97966.69
2018-01-04T14:51:46.231Z,97966.47
2018-01-04T14:54:12.489Z,97960.33
2018-01-04T14:56:38.726Z,97959.81
2018-01-04T14:59:05.781Z,97965.17
2018-01-04T15:01:32.811Z,97968.66
2018-01-04T15:03:59.092Z,97961.55
2018-01-04T15:06:32.193Z,97961.75
2018-01-04T15:08:58.494Z,97970.38
2018-01-04T15:11:24.844Z,97967.98
2018-01-04T15:13:51.225Z,97960.63
2018-01-04T15:16:17.527Z,97963.92
2018-01-04T15:18:43.785Z,97958.75
2018-01-04T15:21:10.067Z,97963.10
2018-01-04T15:23:36.329Z,97954.28
2018-01-04T15:26:03.267Z,97960.69
2018-01-04T15:28:29.537Z,97960.56
2018-01-04T15:30:56.562Z,97965.14
2018-01-04T15:33:22.947Z,97963.88
2018-01-04T15:35:49.216Z,97958.65
2018-01-04T15:38:15.460Z,97956.50
2018-01-04T15:40:41.704Z,97964.96
2018-01-04T15:43:08.729Z,97950.83
2018-01-04T15:45:34.964Z,97942.86
2018-01-04T15:48:01.234Z,97942.56
2018-01-04T15:50:27.560Z,97943.73
2018-01-04T15:52:53.850Z,97939.89
2018-01-04T15:55:20.119Z,97930.20
2018-01-04T15:57:46.405Z,97934.95
2018-01-04T16:00:12.700Z,97919.42
2018-01-04T16:02:38.968Z,97917.38
2018-01-04T16:05:05.259Z,97906.55
2018-01-04T16:07:31.520Z,97905.72
2018-01-04T16:09:57.837Z,97899.88
2018-01-04T16:12:24.101Z,97901.61
2018-01-04T16:14:50.422Z,97900.38
2018-01-04T16:17:17.422Z,97900.80
2018-01-04T16:19:43.716Z,97897.05
2018-01-04T16:22:10.785Z,97890.73
2018-01-04T16:24:37.103Z,97889.95
2018-01-04T16:27:04.106Z,97878.86
2018-01-04T16:29:30.376Z,97870.56
2018-01-04T16:31:57.398Z,97867.08
2018-01-04T16:34:23.625Z,97868.05
2018-01-04T16:36:49.952Z,97861.51
2018-01-04T16:39:16.248Z,97866.36
2018-01-04T16:41:42.512Z,97860.61
2018-01-04T16:44:08.796Z,97856.84
2018-01-04T16:46:35.034Z,97858.86
2018-01-04T16:49:01.308Z,97855.69
2018-01-04T16:51:27.630Z,97848.33
2018-01-04T16:54:02.024Z,97841.25
2018-01-04T16:56:28.316Z,97830.63
2018-01-04T16:58:55.348Z,97838.47
2018-01-04T17:01:22.428Z,97833.89
2018-01-04T17:03:48.744Z,97829.37
2018-01-04T17:06:15.751Z,97830.02
2018-01-04T17:08:42.012Z,97833.45
2018-01-04T17:11:09.003Z,97822.02
2018-01-04T17:13:35.342Z,97827.30
2018-01-04T17:16:01.634Z,97824.22
2018-01-04T17:18:28.660Z,97816.47
2018-01-04T17:21:02.616Z,97809.98
2018-01-04T17:23:28.870Z,97807.14
2018-01-04T17:25:55.209Z,97799.52
2018-01-04T17:28:21.471Z,97799.75
2018-01-04T17:30:48.482Z,97791.70
2018-01-04T17:33:14.811Z,97786.80
2018-01-04T17:35:41.084Z,97781.47
2018-01-04T17:38:08.216Z,97794.05
2018-01-04T17:40:34.523Z,97785.16
2018-01-04T17:43:00.810Z,97782.87
2018-01-04T17:45:27.172Z,97777.59
2018-01-04T17:47:53.458Z,97779.83
2018-01-04T17:50:20.524Z,97776.88
2018-01-04T17:52:46.829Z,97774.04
2018-01-04T17:55:13.929Z,97759.95
2018-01-04T17:57:40.210Z,97770.66
2018-01-04T18:00:07.257Z,97766.55
2018-01-04T18:02:34.265Z,97762.52
2018-01-04T18:05:00.594Z,97767.22
2018-01-04T18:07:27.099Z,97752.41
2018-01-04T18:09:53.611Z,97747.00
2018-01-04T18:12:20.714Z,97741.67
2018-01-04T18:14:47.105Z,97747.25
2018-01-04T18:17:13.388Z,97740.88
2018-01-04T18:19:39.708Z,97741.03
2018-01-04T18:22:06.016Z,97748.88
2018-01-04T18:24:32.292Z,97740.67
2018-01-04T18:26:58.570Z,97720.94
2018-01-04T18:29:24.934Z,97729.64
2018-01-04T18:31:51.212Z,97730.55
2018-01-04T18:34:18.280Z,97726.10
2018-01-04T18:36:44.570Z,97734.69
2018-01-04T18:39:10.909Z,97730.20
2018-01-04T18:41:37.991Z,97733.83
2018-01-04T18:44:04.389Z,97726.13
2018-01-04T18:46:37.880Z,97720.31
2018-01-04T18:49:05.122Z,97711.20
2018-01-04T18:51:31.454Z,97704.75
2018-01-04T18:54:04.228Z,97710.88
2018-01-04T18:56:36.632Z,97705.50
2018-01-04T18:59:14.164Z,97696.80
2018-01-04T19:01:41.631Z,97695.76
2018-01-04T19:04:07.913Z,97699.33
2018-01-04T19:06:38.014Z,97690.45
2018-01-04T19:09:04.331Z,97691.17
2018-01-04T19:11:30.623Z,97687.88
2018-01-04T19:13:57.083Z,97688.81
2018-01-04T19:16:23.486Z,97687.50
2018-01-04T19:18:49.807Z,97687.14
2018-01-04T19:21:16.901Z,97685.75
2018-01-04T19:23:43.233Z,97687.22
2018-01-04T19:26:09.534Z,97683.48
2018-01-04T19:28:35.969Z,97681.31
2018-01-04T19:31:02.216Z,97680.34
2018-01-04T19:33:28.551Z,97681.87
2018-01-04T19:35:54.818Z,97680.08
2018-01-04T19:38:21.140Z,97677.46
2018-01-04T19:40:47.449Z,97683.39
2018-01-04T19:43:13.807Z,97677.29
2018-01-04T19:45:40.153Z,97677.59
2018-01-04T19:48:06.618Z,97667.00
2018-01-04T19:50:32.902Z,97664.31
2018-01-04T19:52:59.328Z,97653.59
2018-01-04T19:55:25.706Z,97654.81
2018-01-04T19:57:52.064Z,97648.20
2018-01-04T20:00:18.374Z,97647.22
2018-01-04T20:02:44.692Z,97648.52
2018-01-04T20:05:10.998Z,97638.97
2018-01-04T20:07:37.296Z,97637.64
2018-01-04T20:10:03.680Z,97630.13
2018-01-04T20:12:30.710Z,97625.23
2018-01-04T20:14:57.766Z,97622.11
2018-01-04T20:17:24.177Z,97614.05
2018-01-04T20:19:50.442Z,97613.72
2018-01-04T20:22:16.801Z,97600.37
2018-01-04T20:24:43.240Z,97614.59
2018-01-04T20:27:09.586Z,97593.91
2018-01-04T20:29:35.903Z,97579.69
2018-01-04T20:32:02.285Z,97591.56
2018-01-04T20:34:29.383Z,97588.52
2018-01-04T20:36:57.804Z,97574.98
2018-01-04T20:39:24.501Z,97596.80
2018-01-04T20:41:59.781Z,97600.55
2018-01-04T20:44:26.044Z,97585.35
2018-01-04T20:46:53.271Z,97576.21
2018-01-04T20:49:20.262Z,97570.58
2018-01-04T20:51:46.569Z,97552.44
2018-01-04T20:54:13.707Z,97552.69
2018-01-04T20:56:40.737Z,97550.48
2018-01-04T20:59:07.876Z,97543.36
2018-01-04T21:01:34.181Z,97540.09
2018-01-04T21:04:14.358Z,97525.96
2018-01-04T21:06:40.751Z,97526.28
2018-01-04T21:09:07.124Z,97515.41
2018-01-04T21:11:33.538Z,97505.86
2018-01-04T21:13:59.922Z,97497.77
2018-01-04T21:16:26.971Z,97508.08
2018-01-04T21:18:53.352Z,97515.52
2018-01-04T21:21:19.692Z,97506.86
2018-01-04T21:23:46.202Z,97498.61
2018-01-04T21:26:22.725Z,97504.09
2018-01-04T21:28:49.112Z,97507.66
2018-01-04T21:31:15.434Z,97526.95
2018-01-04T21:33:41.754Z,97527.11
2018-01-04T21:36:14.325Z,97531.83
2018-01-04T21:38:41.301Z,97520.88
2018-01-04T21:41:07.609Z,97543.77
2018-01-04T21:43:34.771Z,97536.31
2018-01-04T21:46:01.313Z,97536.87
2018-01-04T21:48:27.770Z,97539.04
2018-01-04T21:50:54.084Z,97536.72
2018-01-04T21:53:20.397Z,97538.83
2018-01-04T21:55:46.652Z,97547.50
2018-01-04T21:58:13.033Z,97535.38
2018-01-04T22:01:00.424Z,97549.77
2018-01-04T22:03:26.721Z,97535.77
2018-01-04T22:06:24.144Z,97540.24
2018-01-04T22:08:51.192Z,97529.48
2018-01-04T22:11:31.474Z,97528.98
2018-01-04T22:13:57.732Z,97521.02
2018-01-04T22:16:24.028Z,97536.09
2018-01-04T22:18:51.012Z,97540.28
2018-01-04T22:21:25.181Z,97531.23
2018-01-04T22:23:51.408Z,97534.50
2018-01-04T22:26:18.416Z,97534.72
2018-01-04T22:28:45.744Z,97532.94
2018-01-04T22:31:12.093Z,97535.78
2018-01-04T22:33:38.347Z,97536.77
2018-01-04T22:36:04.615Z,97534.39
2018-01-04T22:38:31.599Z,97525.50
2018-01-04T22:40:57.869Z,97526.81
2018-01-04T22:43:24.097Z,97520.28
2018-01-04T22:45:50.529Z,97513.92
2018-01-04T22:48:16.797Z,97513.70
2018-01-04T22:50:43.095Z,97525.63
2018-01-04T22:53:09.397Z,97527.19
2018-01-04T22:55:35.703Z,97530.78
2018-01-04T22:58:02.024Z,97534.99
2018-01-04T23:00:28.385Z,97531.09
2018-01-04T23:02:55.692Z,97532.87
2018-01-04T23:05:22.810Z,97528.22
2018-01-04T23:07:49.080Z,97527.58
2018-01-04T23:10:15.646Z,97520.12
2018-01-04T23:12:41.920Z,97529.42
2018-01-04T23:15:08.150Z,97534.34
2018-01-04T23:17:35.328Z,97532.16
2018-01-04T23:20:01.680Z,97537.47
2018-01-04T23:22:28.130Z,97537.27
2018-01-04T23:24:54.477Z,97545.90
2018-01-04T23:27:20.892Z,97548.28
2018-01-04T23:29:47.177Z,97549.87
2018-01-04T23:32:13.909Z,97544.09
2018-01-04T23:34:40.960Z,97544.32
2018-01-04T23:37:07.941Z,97544.56
2018-01-04T23:39:34.244Z,97545.92
2018-01-04T23:42:00.513Z,97543.63
2018-01-04T23:44:27.028Z,97550.10
2018-01-04T23:46:53.357Z,97549.14
2018-01-04T23:49:19.654Z,97554.13
2018-01-04T23:51:46.688Z,97566.12
2018-01-04T23:54:12.936Z,97568.84
2018-01-04T23:56:40.012Z,97563.20
2018-01-04T23:59:06.756Z,97567.70
